createdAt,value
2023-04-02T00:02:22.711Z,101082.88
2023-04-02T00:05:16.542Z,101087.88
2023-04-02T00:07:48.990Z,101089.84
2023-04-02T00:10:53.958Z,101099.41
2023-04-02T00:13:43.488Z,101100.16
2023-04-02T00:16:17.026Z,101108.78
2023-04-02T00:18:52.113Z,101116.78
2023-04-02T00:21:26.375Z,101118.47
2023-04-02T00:24:00.273Z,101127.03
2023-04-02T00:26:41.310Z,101122.72
2023-04-02T00:29:11.303Z,101131.69
2023-04-02T00:31:51.621Z,101138.16
2023-04-02T00:34:37.327Z,101139.28
2023-04-02T00:37:05.258Z,101146.91
2023-04-02T00:39:41.757Z,101147.38
2023-04-02T00:42:13.155Z,101149.34
2023-04-02T00:44:43.993Z,101144.06
2023-04-02T00:47:37.900Z,101159.09
2023-04-02T00:50:16.852Z,101154.44
2023-04-02T00:52:48.045Z,101163.88
2023-04-02T00:55:32.479Z,101157.25
2023-04-02T00:58:02.270Z,101171.19
2023-04-02T01:00:35.717Z,101169.34
2023-04-02T01:03:18.019Z,101175.28
2023-04-02T01:05:55.894Z,101180.22
2023-04-02T01:09:15.973Z,101195.09
2023-04-02T01:12:06.802Z,101199.34
2023-04-02T01:15:27.204Z,101204.09
2023-04-02T01:18:36.826Z,101207.66
2023-04-02T01:21:52.985Z,101206.88
2023-04-02T01:24:21.843Z,101213.84
2023-04-02T01:26:59.896Z,101216.44
2023-04-02T01:29:45.512Z,101218.88
2023-04-02T01:32:17.167Z,101230.63
2023-04-02T01:34:47.795Z,101226.97
2023-04-02T01:37:22.315Z,101224.88
2023-04-02T01:40:09.862Z,101232.44
2023-04-02T01:43:06.638Z,101238.81
2023-04-02T01:45:35.337Z,101237.34
2023-04-02T01:48:14.108Z,101248.66
2023-04-02T01:50:43.701Z,101241.94
2023-04-02T01:53:15.442Z,101250.28
2023-04-02T01:55:48.974Z,101250.53
2023-04-02T01:58:25.618Z,101257.44
2023-04-02T02:01:13.192Z,101255.56
2023-04-02T02:03:43.698Z,101261.50
2023-04-02T02:06:16.741Z,101280.13
2023-04-02T02:08:53.328Z,101282.56
2023-04-02T02:11:26.693Z,101283.31
2023-04-02T02:14:00.795Z,101280.00
2023-04-02T02:16:31.965Z,101283.47
2023-04-02T02:19:02.839Z,101289.13
2023-04-02T02:21:53.392Z,101286.91
2023-04-02T02:24:32.204Z,101302.94
2023-04-02T02:27:39.067Z,101307.00
2023-04-02T02:30:46.391Z,101305.56
2023-04-02T02:33:28.942Z,101314.19
2023-04-02T02:36:19.230Z,101323.50
2023-04-02T02:39:15.426Z,101328.06
2023-04-02T02:42:08.490Z,101337.47
2023-04-02T02:44:39.665Z,101340.34
2023-04-02T02:47:14.274Z,101353.34
2023-04-02T02:49:46.139Z,101356.75
2023-04-02T02:52:21.514Z,101356.63
2023-04-02T02:54:57.932Z,101354.19
2023-04-02T02:57:37.611Z,101364.53
2023-04-02T03:00:08.301Z,101373.28
2023-04-02T03:02:39.077Z,101380.19
2023-04-02T03:05:07.647Z,101382.75
2023-04-02T03:07:35.005Z,101382.56
2023-04-02T03:10:27.458Z,101383.63
2023-04-02T03:13:21.925Z,101389.69
2023-04-02T03:16:02.619Z,101396.19
2023-04-02T03:19:04.792Z,101402.84
2023-04-02T03:21:53.250Z,101413.19
2023-04-02T03:24:55.139Z,101418.84
2023-04-02T03:27:32.367Z,101421.50
2023-04-02T03:30:47.330Z,101420.34
2023-04-02T03:33:40.904Z,101428.94
2023-04-02T03:36:34.568Z,101428.44
2023-04-02T03:39:23.015Z,101434.44
2023-04-02T03:42:00.411Z,101439.84
2023-04-02T03:44:54.882Z,101447.63
2023-04-02T03:47:34.499Z,101452.50
2023-04-02T03:50:35.570Z,101459.56
2023-04-02T03:53:04.396Z,101463.91
2023-04-02T03:55:41.076Z,101475.44
2023-04-02T03:58:25.438Z,101477.00
2023-04-02T04:01:03.162Z,101481.97
2023-04-02T04:03:42.376Z,101494.34
2023-04-02T04:06:20.316Z,101494.22
2023-04-02T04:08:58.759Z,101489.13
2023-04-02T04:11:33.942Z,101507.28
2023-04-02T04:14:15.983Z,101511.03
2023-04-02T04:16:54.200Z,101512.78
2023-04-02T04:20:03.030Z,101514.56
2023-04-02T04:22:32.753Z,101524.63
2023-04-02T04:25:02.974Z,101534.47
2023-04-02T04:27:43.885Z,101530.66
2023-04-02T04:30:42.485Z,101537.25
2023-04-02T04:33:25.639Z,101543.97
2023-04-02T04:36:00.190Z,101551.44
2023-04-02T04:38:42.687Z,101555.06
2023-04-02T04:41:24.402Z,101558.09
2023-04-02T04:44:38.591Z,101561.84
2023-04-02T04:47:22.137Z,101571.06
2023-04-02T04:50:19.237Z,101568.25
2023-04-02T04:52:46.341Z,101578.56
2023-04-02T04:55:43.611Z,101581.81
2023-04-02T04:58:49.893Z,101598.41
2023-04-02T05:01:50.788Z,101604.44
2023-04-02T05:04:43.587Z,101613.19
2023-04-02T05:07:21.922Z,101608.91
2023-04-02T05:10:35.205Z,101608.66
2023-04-02T05:13:23.414Z,101622.00
2023-04-02T05:16:28.824Z,101621.78
2023-04-02T05:19:17.114Z,101636.22
2023-04-02T05:22:24.790Z,101643.97
2023-04-02T05:25:19.472Z,101654.81
2023-04-02T05:28:04.300Z,101651.50
2023-04-02T05:31:07.192Z,101660.50
2023-04-02T05:33:36.656Z,101664.22
2023-04-02T05:36:14.141Z,101665.06
2023-04-02T05:38:47.675Z,101673.84
2023-04-02T05:41:28.995Z,101679.81
2023-04-02T05:44:12.069Z,101682.25
2023-04-02T05:47:14.737Z,101680.38
2023-04-02T05:50:33.142Z,101694.22
2023-04-02T05:53:12.841Z,101694.75
2023-04-02T05:56:12.995Z,101707.28
2023-04-02T05:58:51.514Z,101711.69
2023-04-02T06:01:25.224Z,101710.00
2023-04-02T06:04:25.018Z,101720.59
2023-04-02T06:07:24.623Z,101717.94
2023-04-02T06:10:00.804Z,101726.38
2023-04-02T06:12:58.187Z,101736.81
2023-04-02T06:15:25.375Z,101743.84
2023-04-02T06:18:20.347Z,101751.94
2023-04-02T06:20:47.798Z,101751.66
2023-04-02T06:23:56.773Z,101765.16
2023-04-02T06:26:38.908Z,101760.41
2023-04-02T06:29:30.956Z,101768.34
2023-04-02T06:32:04.006Z,101772.09
2023-04-02T06:34:32.590Z,101783.84
2023-04-02T06:37:17.383Z,101784.28
2023-04-02T06:39:44.383Z,101780.53
2023-04-02T06:42:21.222Z,101787.06
2023-04-02T06:44:49.474Z,101792.84
2023-04-02T06:47:42.589Z,101800.88
2023-04-02T06:50:22.932Z,101798.13
2023-04-02T06:52:55.459Z,101801.50
2023-04-02T06:55:45.714Z,101812.59
2023-04-02T06:58:14.238Z,101819.25
2023-04-02T07:00:49.300Z,101819.63
2023-04-02T07:03:19.549Z,101826.34
2023-04-02T07:05:47.359Z,101826.72
2023-04-02T07:08:14.364Z,101830.88
2023-04-02T07:10:41.370Z,101834.66
2023-04-02T07:13:17.706Z,101840.72
2023-04-02T07:15:52.472Z,101845.06
2023-04-02T07:18:30.087Z,101849.09
2023-04-02T07:20:57.694Z,101850.22
2023-04-02T07:23:25.467Z,101862.59
2023-04-02T07:25:57.112Z,101870.28
2023-04-02T07:28:24.644Z,101873.34
2023-04-02T07:30:52.723Z,101877.16
2023-04-02T07:33:26.467Z,101882.38
2023-04-02T07:35:55.625Z,101884.91
2023-04-02T07:38:22.721Z,101885.81
2023-04-02T07:40:50.397Z,101887.31
2023-04-02T07:43:17.385Z,101893.41
2023-04-02T07:45:44.605Z,101899.47
2023-04-02T07:48:14.074Z,101895.88
2023-04-02T07:50:41.804Z,101913.44
2023-04-02T07:53:25.631Z,101914.91
2023-04-02T07:55:53.509Z,101919.63
2023-04-02T07:58:20.505Z,101924.06
2023-04-02T08:00:51.019Z,101936.84
2023-04-02T08:03:18.451Z,101931.47
2023-04-02T08:05:58.215Z,101938.03
2023-04-02T08:08:26.324Z,101941.31
2023-04-02T08:10:54.548Z,101946.63
2023-04-02T08:13:21.552Z,101943.19
2023-04-02T08:15:48.772Z,101950.53
2023-04-02T08:18:15.847Z,101955.84
2023-04-02T08:20:42.884Z,101965.03
2023-04-02T08:23:17.963Z,101964.06
2023-04-02T08:25:46.215Z,101976.59
2023-04-02T08:28:13.614Z,101981.91
2023-04-02T08:30:41.161Z,101980.41
2023-04-02T08:33:08.299Z,101983.34
2023-04-02T08:35:35.769Z,101997.69
2023-04-02T08:38:03.291Z,101990.94
2023-04-02T08:40:36.697Z,102002.25
2023-04-02T08:43:09.031Z,102009.59
2023-04-02T08:46:33.202Z,102010.22
2023-04-02T08:49:10.244Z,102012.59
2023-04-02T08:51:37.965Z,102023.94
2023-04-02T08:54:38.074Z,102025.75
2023-04-02T08:57:12.529Z,102031.31
2023-04-02T08:59:43.474Z,102039.63
2023-04-02T09:02:34.129Z,102031.63
2023-04-02T09:05:07.101Z,102044.69
2023-04-02T09:07:34.268Z,102051.41
2023-04-02T09:10:01.844Z,102064.63
2023-04-02T09:12:31.846Z,102062.81
2023-04-02T09:15:18.566Z,102060.09
2023-04-02T09:17:53.579Z,102066.25
2023-04-02T09:20:28.536Z,102072.41
2023-04-02T09:22:56.796Z,102068.00
2023-04-02T09:25:28.166Z,102077.75
2023-04-02T09:27:57.906Z,102080.59
2023-04-02T09:30:59.509Z,102090.72
2023-04-02T09:33:44.099Z,102095.47
2023-04-02T09:36:40.178Z,102089.97
2023-04-02T09:39:20.333Z,102096.09
2023-04-02T09:41:59.063Z,102100.50
2023-04-02T09:44:32.273Z,102114.97
2023-04-02T09:47:06.023Z,102115.63
2023-04-02T09:49:36.962Z,102121.25
2023-04-02T09:52:30.182Z,102129.59
2023-04-02T09:55:29.140Z,102132.13
2023-04-02T09:58:17.387Z,102143.66
2023-04-02T10:00:54.864Z,102140.06
2023-04-02T10:03:25.826Z,102140.06
2023-04-02T10:06:12.044Z,102142.34
2023-04-02T10:08:43.009Z,102154.09
2023-04-02T10:11:46.313Z,102152.03
2023-04-02T10:14:21.723Z,102160.53
2023-04-02T10:17:07.536Z,102169.00
2023-04-02T10:19:37.738Z,102168.47
2023-04-02T10:22:16.572Z,102163.38
2023-04-02T10:24:43.783Z,102174.50
2023-04-02T10:27:32.045Z,102179.91
2023-04-02T10:30:42.920Z,102182.47
2023-04-02T10:33:25.232Z,102188.88
2023-04-02T10:36:11.752Z,102195.59
2023-04-02T10:39:16.078Z,102195.53
2023-04-02T10:42:00.547Z,102200.22
2023-04-02T10:45:04.986Z,102203.72
2023-04-02T10:47:48.504Z,102212.13
2023-04-02T10:50:44.907Z,102215.16
2023-04-02T10:53:18.115Z,102220.09
2023-04-02T10:55:57.198Z,102219.16
2023-04-02T10:58:27.517Z,102221.69
2023-04-02T11:01:04.309Z,102225.56
2023-04-02T11:06:28.956Z,102226.53
2023-04-02T11:09:05.309Z,102228.06
2023-04-02T11:11:42.943Z,102227.09
2023-04-02T11:14:22.510Z,102228.38
2023-04-02T11:16:51.874Z,102235.91
2023-04-02T11:19:18.757Z,102246.38
2023-04-02T11:22:16.540Z,102246.13
2023-04-02T11:24:56.069Z,102264.34
2023-04-02T11:27:33.928Z,102270.03
2023-04-02T11:30:27.613Z,102268.47
2023-04-02T11:33:18.656Z,102270.25
2023-04-02T11:35:47.920Z,102271.50
2023-04-02T11:38:23.739Z,102268.44
2023-04-02T11:41:00.039Z,102280.41
2023-04-02T11:43:37.128Z,102277.19
2023-04-02T11:46:16.174Z,102283.84
2023-04-02T11:48:43.733Z,102283.63
2023-04-02T11:51:22.827Z,102293.06
2023-04-02T11:53:52.953Z,102285.63
2023-04-02T11:56:32.685Z,102278.59
2023-04-02T11:59:40.915Z,102283.56
2023-04-02T12:02:30.417Z,102297.56
2023-04-02T12:05:27.295Z,102302.81
2023-04-02T12:08:18.813Z,102299.72
2023-04-02T12:10:56.604Z,102310.75
2023-04-02T12:13:41.989Z,102323.94
2023-04-02T12:16:14.045Z,102316.91
2023-04-02T12:18:54.943Z,102323.06
2023-04-02T12:21:27.279Z,102329.28
2023-04-02T12:23:58.498Z,102333.97
2023-04-02T12:26:37.593Z,102341.75
2023-04-02T12:29:27.752Z,102332.69
2023-04-02T12:31:59.966Z,102342.28
2023-04-02T12:34:30.100Z,102338.53
2023-04-02T12:37:05.498Z,102337.88
2023-04-02T12:39:34.888Z,102342.41
2023-04-02T12:42:02.202Z,102338.97
2023-04-02T12:44:31.288Z,102334.72
2023-04-02T12:46:59.449Z,102329.59
2023-04-02T12:49:43.248Z,102338.19
2023-04-02T12:52:14.654Z,102335.78
2023-04-02T12:54:55.120Z,102336.63
2023-04-02T12:57:30.989Z,102343.09
2023-04-02T13:00:20.179Z,102341.22
2023-04-02T13:03:05.866Z,102352.34
2023-04-02T13:05:44.124Z,102346.81
2023-04-02T13:08:27.998Z,102352.34
2023-04-02T13:11:03.537Z,102351.47
2023-04-02T13:13:41.948Z,102356.72
2023-04-02T13:16:17.999Z,102355.97
2023-04-02T13:18:49.058Z,102347.28
2023-04-02T13:21:29.617Z,102351.00
2023-04-02T13:23:56.684Z,102354.22
2023-04-02T13:26:29.335Z,102348.31
2023-04-02T13:29:32.317Z,102352.22
2023-04-02T13:32:12.177Z,102348.66
2023-04-02T13:34:39.182Z,102339.13
2023-04-02T13:37:06.309Z,102344.16
2023-04-02T13:39:33.264Z,102347.53
2023-04-02T13:42:04.172Z,102347.25
2023-04-02T13:44:34.452Z,102350.03
2023-04-02T13:47:01.527Z,102351.69
2023-04-02T13:49:29.319Z,102358.44
2023-04-02T13:52:05.641Z,102360.06
2023-04-02T13:54:54.691Z,102369.22
2023-04-02T13:57:21.806Z,102362.38
2023-04-02T13:59:48.768Z,102371.81
2023-04-02T14:02:24.567Z,102374.75
2023-04-02T14:05:28.910Z,102370.41
2023-04-02T14:07:58.247Z,102375.72
2023-04-02T14:11:11.179Z,102374.47
2023-04-02T14:13:59.688Z,102389.13
2023-04-02T14:16:58.730Z,102391.31
2023-04-02T14:19:54.033Z,102383.47
2023-04-02T14:23:23.356Z,102374.59
2023-04-02T14:26:08.121Z,102384.88
2023-04-02T14:29:09.465Z,102388.75
2023-04-02T14:32:20.404Z,102388.16
2023-04-02T14:35:17.231Z,102393.56
2023-04-02T14:38:16.408Z,102386.63
2023-04-02T14:40:59.017Z,102393.84
2023-04-02T14:43:34.049Z,102379.28
2023-04-02T14:46:07.957Z,102384.03
2023-04-02T14:49:00.986Z,102393.16
2023-04-02T14:52:04.748Z,102387.31
2023-04-02T14:55:00.244Z,102392.97
2023-04-02T14:57:41.040Z,102394.38
2023-04-02T15:00:46.055Z,102391.75
2023-04-02T15:03:24.167Z,102386.84
2023-04-02T15:06:12.070Z,102392.00
2023-04-02T15:09:15.719Z,102387.50
2023-04-02T15:12:04.016Z,102397.84
2023-04-02T15:15:04.213Z,102395.88
2023-04-02T15:17:32.038Z,102387.69
2023-04-02T15:20:19.870Z,102391.50
2023-04-02T15:23:05.764Z,102404.25
2023-04-02T15:26:00.932Z,102403.78
2023-04-02T15:29:25.952Z,102398.16
2023-04-02T15:32:23.793Z,102396.47
2023-04-02T15:35:36.942Z,102400.66
2023-04-02T15:38:19.545Z,102397.50
2023-04-02T15:41:23.765Z,102409.81
2023-04-02T15:44:06.468Z,102412.44
2023-04-02T15:47:30.755Z,102413.88
2023-04-02T15:50:06.938Z,102416.75
2023-04-02T15:53:15.406Z,102425.84
2023-04-02T15:55:49.871Z,102420.69
2023-04-02T15:58:48.150Z,102424.56
2023-04-02T16:01:33.689Z,102423.22
2023-04-02T16:04:26.158Z,102425.84
2023-04-02T16:07:27.207Z,102423.31
2023-04-02T16:10:05.208Z,102433.03
2023-04-02T16:12:34.756Z,102438.50
2023-04-02T16:15:42.448Z,102441.81
2023-04-02T16:18:30.711Z,102437.53
2023-04-02T16:21:02.569Z,102440.34
2023-04-02T16:23:41.873Z,102446.97
2023-04-02T16:26:31.302Z,102451.22
2023-04-02T16:29:12.186Z,102449.56
2023-04-02T16:32:04.833Z,102455.84
2023-04-02T16:34:39.983Z,102454.38
2023-04-02T16:37:34.580Z,102459.84
2023-04-02T16:40:21.092Z,102457.41
2023-04-02T16:43:12.131Z,102466.00
2023-04-02T16:46:10.316Z,102469.78
2023-04-02T16:48:49.152Z,102467.06
2023-04-02T16:51:40.624Z,102477.72
2023-04-02T16:54:16.590Z,102482.38
2023-04-02T16:57:28.535Z,102492.97
2023-04-02T17:00:30.918Z,102488.16
2023-04-02T17:03:11.527Z,102495.66
2023-04-02T17:06:07.755Z,102495.72
2023-04-02T17:08:50.082Z,102498.50
2023-04-02T17:11:25.932Z,102503.13
2023-04-02T17:14:30.660Z,102506.19
2023-04-02T17:17:02.945Z,102506.06
2023-04-02T17:19:32.583Z,102512.09
2023-04-02T17:22:05.093Z,102514.47
2023-04-02T17:24:44.664Z,102523.84
2023-04-02T17:27:22.454Z,102525.97
2023-04-02T17:29:54.256Z,102526.88
2023-04-02T17:32:32.494Z,102541.38
2023-04-02T17:35:34.770Z,102535.91
2023-04-02T17:38:17.776Z,102541.81
2023-04-02T17:41:09.153Z,102548.16
2023-04-02T17:44:01.466Z,102548.03
2023-04-02T17:47:14.760Z,102557.28
2023-04-02T17:50:12.155Z,102571.66
2023-04-02T17:53:06.515Z,102562.66
2023-04-02T17:55:40.692Z,102576.41
2023-04-02T17:58:36.218Z,102580.38
2023-04-02T18:01:39.815Z,102583.25
2023-04-02T18:04:28.121Z,102589.03
2023-04-02T18:07:20.600Z,102589.41
2023-04-02T18:10:02.194Z,102594.34
2023-04-02T18:12:53.385Z,102592.25
2023-04-02T18:15:38.956Z,102595.94
2023-04-02T18:18:49.766Z,102603.31
2023-04-02T18:21:44.402Z,102616.03
2023-04-02T18:24:46.597Z,102624.44
2023-04-02T18:27:28.112Z,102628.47
2023-04-02T18:30:46.111Z,102622.78
2023-04-02T18:33:43.202Z,102639.00
2023-04-02T18:36:23.446Z,102643.44
2023-04-02T18:39:13.305Z,102648.63
2023-04-02T18:41:50.161Z,102645.75
2023-04-02T18:44:54.645Z,102643.75
2023-04-02T18:47:42.422Z,102653.75
2023-04-02T18:50:39.399Z,102662.13
2023-04-02T18:53:26.136Z,102668.19
2023-04-02T18:56:12.159Z,102664.44
2023-04-02T18:58:51.724Z,102678.56
2023-04-02T19:01:33.241Z,102680.94
2023-04-02T19:04:10.823Z,102686.81
2023-04-02T19:06:44.667Z,102697.66
2023-04-02T19:09:31.048Z,102701.91
2023-04-02T19:11:58.020Z,102701.31
2023-04-02T19:14:25.946Z,102694.28
2023-04-02T19:18:02.013Z,102700.09
2023-04-02T19:21:02.265Z,102696.81
2023-04-02T19:23:58.633Z,102702.78
2023-04-02T19:27:10.449Z,102716.91
2023-04-02T19:30:30.350Z,102711.41
2023-04-02T19:33:42.593Z,102716.91
2023-04-02T19:36:34.018Z,102720.16
2023-04-02T19:39:08.179Z,102725.72
2023-04-02T19:41:57.461Z,102722.34
2023-04-02T19:44:24.460Z,102722.25
2023-04-02T19:46:51.703Z,102726.78
2023-04-02T19:49:33.672Z,102724.69
2023-04-02T19:52:01.008Z,102726.41
2023-04-02T19:54:28.113Z,102736.50
2023-04-02T19:56:55.340Z,102741.56
2023-04-02T19:59:22.375Z,102742.09
2023-04-02T20:01:49.348Z,102736.69
2023-04-02T20:04:16.335Z,102746.66
2023-04-02T20:06:43.459Z,102748.44
2023-04-02T20:09:10.638Z,102749.16
2023-04-02T20:11:38.722Z,102744.56
2023-04-02T20:14:05.964Z,102750.50
2023-04-02T20:16:34.461Z,102752.22
2023-04-02T20:19:01.536Z,102755.88
2023-04-02T20:21:29.547Z,102750.78
2023-04-02T20:23:56.505Z,102758.75
2023-04-02T20:26:23.504Z,102760.66
2023-04-02T20:28:50.552Z,102777.66
2023-04-02T20:31:18.894Z,102773.16
2023-04-02T20:33:46.726Z,102792.03
2023-04-02T20:36:16.897Z,102791.84
2023-04-02T20:38:45.433Z,102789.84
2023-04-02T20:41:12.638Z,102797.34
2023-04-02T20:43:40.935Z,102798.88
2023-04-02T20:46:10.811Z,102789.72
2023-04-02T20:48:39.939Z,102799.97
2023-04-02T20:51:09.711Z,102799.06
2023-04-02T20:53:38.352Z,102803.91
2023-04-02T20:56:12.532Z,102811.91
2023-04-02T20:58:40.923Z,102814.19
2023-04-02T21:01:27.706Z,102815.41
2023-04-02T21:03:57.850Z,102825.94
2023-04-02T21:06:31.446Z,102824.53
2023-04-02T21:08:58.409Z,102834.88
2023-04-02T21:11:26.273Z,102831.91
2023-04-02T21:13:53.366Z,102837.72
2023-04-02T21:16:31.578Z,102835.91
2023-04-02T21:19:03.302Z,102845.25
2023-04-02T21:21:30.686Z,102839.44
2023-04-02T21:24:01.511Z,102840.94
2023-04-02T21:26:33.473Z,102838.09
2023-04-02T21:29:02.367Z,102840.31
2023-04-02T21:31:37.393Z,102831.47
2023-04-02T21:34:05.179Z,102836.22
2023-04-02T21:36:36.180Z,102833.69
2023-04-02T21:39:07.837Z,102838.38
2023-04-02T21:41:38.552Z,102848.13
2023-04-02T21:44:12.910Z,102849.72
2023-04-02T21:46:44.162Z,102848.41
2023-04-02T21:49:15.452Z,102858.72
2023-04-02T21:51:44.277Z,102858.63
2023-04-02T21:54:11.382Z,102863.47
2023-04-02T21:56:42.376Z,102868.69
2023-04-02T21:59:12.258Z,102875.38
2023-04-02T22:01:43.598Z,102872.56
2023-04-02T22:04:23.495Z,102870.59
2023-04-02T22:06:52.333Z,102867.56
2023-04-02T22:09:25.725Z,102870.84
2023-04-02T22:11:59.186Z,102867.22
2023-04-02T22:14:27.654Z,102878.31
2023-04-02T22:16:55.065Z,102871.53
2023-04-02T22:19:22.405Z,102873.22
2023-04-02T22:21:49.783Z,102874.03
2023-04-02T22:24:22.447Z,102882.19
2023-04-02T22:26:50.022Z,102878.88
2023-04-02T22:29:17.180Z,102880.84
2023-04-02T22:31:44.379Z,102874.50
2023-04-02T22:34:11.503Z,102876.31
2023-04-02T22:36:38.530Z,102868.38
2023-04-02T22:39:10.283Z,102876.19
2023-04-02T22:41:38.350Z,102877.66
2023-04-02T22:44:05.415Z,102871.78
2023-04-02T22:46:32.752Z,102876.06
2023-04-02T22:48:59.760Z,102873.94
2023-04-02T22:51:28.042Z,102877.22
2023-04-02T22:53:56.209Z,102876.53
2023-04-02T22:56:31.775Z,102884.59
2023-04-02T22:58:59.396Z,102880.84
2023-04-02T23:01:35.412Z,102877.22
2023-04-02T23:04:04.856Z,102887.88
2023-04-02T23:06:32.492Z,102891.81
2023-04-02T23:08:59.568Z,102886.06
2023-04-02T23:11:27.916Z,102888.09
2023-04-02T23:13:57.464Z,102891.94
2023-04-02T23:16:29.302Z,102896.44
2023-04-02T23:18:57.142Z,102897.47
2023-04-02T23:21:25.898Z,102897.00
2023-04-02T23:23:53.235Z,102896.78
2023-04-02T23:26:24.652Z,102891.22
2023-04-02T23:28:51.805Z,102894.63
2023-04-02T23:31:22.189Z,102895.09
2023-04-02T23:33:51.237Z,102892.31
2023-04-02T23:36:33.518Z,102894.59
2023-04-02T23:39:11.223Z,102896.97
2023-04-02T23:41:43.055Z,102904.78
2023-04-02T23:44:10.387Z,102899.69
2023-04-02T23:46:37.814Z,102900.13
2023-04-02T23:49:05.131Z,102889.38
2023-04-02T23:51:32.416Z,102894.34
2023-04-02T23:53:59.874Z,102896.28
2023-04-02T23:56:27.197Z,102906.34
2023-04-02T23:58:54.266Z,102900.00
